Aviation Digital Data Service (ADDS)

Output produced by TAFs form (1321 UTC 23 August 2014)
found at http://aviationweather.gov/adds/tafs/
 
KROW 231120Z 2312/2412 16006KT P6SM SCT120 
     FM231800 19011KT P6SM SCT120 
     TEMPO 2321/2401 19011G21KT